sensor_id;sensor_type;location;lat;lon;timestamp;pressure;altitude;pressure_sealevel;temperature;humidity
49461;BME280;35355;49.198;-0.368;2023-07-20T00:00:26;101214.16;;;18.90;61.49
49461;BME280;35355;49.198;-0.368;2023-07-20T00:02:51;101205.31;;;18.88;61.60
49461;BME280;35355;49.198;-0.368;2023-07-20T00:05:17;101207.78;;;18.89;61.63
49461;BME280;35355;49.198;-0.368;2023-07-20T00:07:47;101204.50;;;18.87;61.40
49461;BME280;35355;49.198;-0.368;2023-07-20T00:10:12;101207.88;;;18.84;61.73
49461;BME280;35355;49.198;-0.368;2023-07-20T00:12:38;101201.00;;;18.82;61.77
49461;BME280;35355;49.198;-0.368;2023-07-20T00:15:04;101198.84;;;18.79;61.83
49461;BME280;35355;49.198;-0.368;2023-07-20T00:17:29;101195.88;;;18.75;61.89
49461;BME280;35355;49.198;-0.368;2023-07-20T00:19:55;101202.84;;;18.72;61.81
49461;BME280;35355;49.198;-0.368;2023-07-20T00:22:20;101201.19;;;18.71;62.04
49461;BME280;35355;49.198;-0.368;2023-07-20T00:24:45;101202.91;;;18.67;61.96
49461;BME280;35355;49.198;-0.368;2023-07-20T00:27:11;101204.06;;;18.66;62.12
49461;BME280;35355;49.198;-0.368;2023-07-20T00:29:36;101203.22;;;18.66;61.99
49461;BME280;35355;49.198;-0.368;2023-07-20T00:32:02;101201.91;;;18.63;61.88
49461;BME280;35355;49.198;-0.368;2023-07-20T00:34:30;101191.97;;;18.62;62.15
49461;BME280;35355;49.198;-0.368;2023-07-20T00:36:55;101197.50;;;18.62;62.40
49461;BME280;35355;49.198;-0.368;2023-07-20T00:39:21;101190.84;;;18.63;62.24
49461;BME280;35355;49.198;-0.368;2023-07-20T00:41:46;101183.97;;;18.61;62.24
49461;BME280;35355;49.198;-0.368;2023-07-20T00:44:11;101182.63;;;18.58;62.21
49461;BME280;35355;49.198;-0.368;2023-07-20T00:46:37;101181.00;;;18.57;62.37
49461;BME280;35355;49.198;-0.368;2023-07-20T00:49:03;101175.78;;;18.55;62.22
49461;BME280;35355;49.198;-0.368;2023-07-20T00:51:29;101182.13;;;18.56;62.40
49461;BME280;35355;49.198;-0.368;2023-07-20T00:53:54;101183.06;;;18.51;62.48
49461;BME280;35355;49.198;-0.368;2023-07-20T00:56:21;101180.00;;;18.53;62.32
49461;BME280;35355;49.198;-0.368;2023-07-20T00:58:47;101173.94;;;18.51;62.57
49461;BME280;35355;49.198;-0.368;2023-07-20T01:01:12;101174.47;;;18.53;62.42
49461;BME280;35355;49.198;-0.368;2023-07-20T01:03:39;101171.78;;;18.48;62.46
49461;BME280;35355;49.198;-0.368;2023-07-20T01:06:25;101172.06;;;18.46;61.89
49461;BME280;35355;49.198;-0.368;2023-07-20T01:08:57;101167.16;;;18.43;62.31
49461;BME280;35355;49.198;-0.368;2023-07-20T01:14:11;101168.38;;;18.37;62.63
49461;BME280;35355;49.198;-0.368;2023-07-20T01:16:37;101173.06;;;18.36;62.93
49461;BME280;35355;49.198;-0.368;2023-07-20T01:19:02;101170.84;;;18.38;63.01
49461;BME280;35355;49.198;-0.368;2023-07-20T01:21:36;101164.28;;;18.34;62.79
49461;BME280;35355;49.198;-0.368;2023-07-20T01:24:39;101154.03;;;18.35;62.91
49461;BME280;35355;49.198;-0.368;2023-07-20T01:27:16;101150.16;;;18.36;62.64
49461;BME280;35355;49.198;-0.368;2023-07-20T01:32:29;101153.97;;;18.40;63.49
49461;BME280;35355;49.198;-0.368;2023-07-20T01:34:56;101156.72;;;18.40;63.57
49461;BME280;35355;49.198;-0.368;2023-07-20T01:37:24;101157.03;;;18.38;63.74
49461;BME280;35355;49.198;-0.368;2023-07-20T01:39:52;101152.84;;;18.41;63.63
49461;BME280;35355;49.198;-0.368;2023-07-20T01:42:21;101155.06;;;18.39;63.39
49461;BME280;35355;49.198;-0.368;2023-07-20T01:44:47;101159.69;;;18.44;63.73
49461;BME280;35355;49.198;-0.368;2023-07-20T01:47:12;101160.81;;;18.43;63.39
49461;BME280;35355;49.198;-0.368;2023-07-20T01:49:37;101147.31;;;18.41;63.14
49461;BME280;35355;49.198;-0.368;2023-07-20T01:52:03;101145.34;;;18.41;63.09
49461;BME280;35355;49.198;-0.368;2023-07-20T01:54:29;101144.84;;;18.39;63.03
49461;BME280;35355;49.198;-0.368;2023-07-20T01:56:54;101135.53;;;18.35;63.15
49461;BME280;35355;49.198;-0.368;2023-07-20T01:59:20;101146.03;;;18.33;62.91
49461;BME280;35355;49.198;-0.368;2023-07-20T02:01:45;101146.88;;;18.34;63.16
49461;BME280;35355;49.198;-0.368;2023-07-20T02:04:10;101142.78;;;18.31;63.10
49461;BME280;35355;49.198;-0.368;2023-07-20T02:06:36;101130.69;;;18.27;63.21
49461;BME280;35355;49.198;-0.368;2023-07-20T02:09:01;101134.06;;;18.24;63.29
49461;BME280;35355;49.198;-0.368;2023-07-20T02:11:27;101129.66;;;18.23;63.67
49461;BME280;35355;49.198;-0.368;2023-07-20T02:13:52;101136.81;;;18.24;63.58
49461;BME280;35355;49.198;-0.368;2023-07-20T02:16:17;101132.41;;;18.23;63.57
49461;BME280;35355;49.198;-0.368;2023-07-20T02:18:43;101135.19;;;18.23;63.66
49461;BME280;35355;49.198;-0.368;2023-07-20T02:21:08;101127.44;;;18.25;63.53
49461;BME280;35355;49.198;-0.368;2023-07-20T02:23:33;101139.28;;;18.26;63.48
49461;BME280;35355;49.198;-0.368;2023-07-20T02:25:59;101128.22;;;18.26;63.55
49461;BME280;35355;49.198;-0.368;2023-07-20T02:28:24;101117.78;;;18.22;63.61
49461;BME280;35355;49.198;-0.368;2023-07-20T02:30:49;101124.66;;;18.25;63.25
49461;BME280;35355;49.198;-0.368;2023-07-20T02:33:15;101122.22;;;18.23;63.29
49461;BME280;35355;49.198;-0.368;2023-07-20T02:35:40;101117.59;;;18.19;63.09
49461;BME280;35355;49.198;-0.368;2023-07-20T02:38:05;101113.69;;;18.20;63.09
49461;BME280;35355;49.198;-0.368;2023-07-20T02:40:32;101128.66;;;18.19;63.22
49461;BME280;35355;49.198;-0.368;2023-07-20T02:42:57;101113.78;;;18.15;63.21
49461;BME280;35355;49.198;-0.368;2023-07-20T02:45:22;101121.25;;;18.14;62.90
49461;BME280;35355;49.198;-0.368;2023-07-20T02:47:48;101117.16;;;18.12;63.18
49461;BME280;35355;49.198;-0.368;2023-07-20T02:50:14;101124.91;;;18.10;63.07
49461;BME280;35355;49.198;-0.368;2023-07-20T02:52:39;101117.78;;;18.09;62.96
49461;BME280;35355;49.198;-0.368;2023-07-20T02:55:05;101122.75;;;18.06;62.79
49461;BME280;35355;49.198;-0.368;2023-07-20T02:57:30;101122.56;;;18.03;62.60
49461;BME280;35355;49.198;-0.368;2023-07-20T02:59:56;101121.84;;;17.97;62.55
49461;BME280;35355;49.198;-0.368;2023-07-20T03:02:21;101120.47;;;17.95;62.50
49461;BME280;35355;49.198;-0.368;2023-07-20T03:04:46;101114.47;;;17.93;62.56
49461;BME280;35355;49.198;-0.368;2023-07-20T03:07:12;101120.28;;;17.91;62.59
49461;BME280;35355;49.198;-0.368;2023-07-20T03:09:37;101121.97;;;17.87;62.50
49461;BME280;35355;49.198;-0.368;2023-07-20T03:12:03;101109.38;;;17.81;62.78
49461;BME280;35355;49.198;-0.368;2023-07-20T03:14:30;101115.41;;;17.83;62.57
49461;BME280;35355;49.198;-0.368;2023-07-20T03:16:55;101111.59;;;17.79;62.82
49461;BME280;35355;49.198;-0.368;2023-07-20T03:19:20;101111.09;;;17.77;62.85
49461;BME280;35355;49.198;-0.368;2023-07-20T03:21:46;101098.19;;;17.72;62.73
49461;BME280;35355;49.198;-0.368;2023-07-20T03:24:11;101111.69;;;17.74;62.90
49461;BME280;35355;49.198;-0.368;2023-07-20T03:26:37;101098.72;;;17.74;63.04
49461;BME280;35355;49.198;-0.368;2023-07-20T03:29:04;101101.47;;;17.74;63.02
49461;BME280;35355;49.198;-0.368;2023-07-20T03:31:30;101102.31;;;17.75;63.37
49461;BME280;35355;49.198;-0.368;2023-07-20T03:33:55;101103.91;;;17.76;63.11
49461;BME280;35355;49.198;-0.368;2023-07-20T03:36:21;101101.69;;;17.78;63.41
49461;BME280;35355;49.198;-0.368;2023-07-20T03:38:47;101105.56;;;17.77;63.47
49461;BME280;35355;49.198;-0.368;2023-07-20T03:41:12;101107.22;;;17.78;63.54
49461;BME280;35355;49.198;-0.368;2023-07-20T03:43:38;101106.19;;;17.74;64.04
49461;BME280;35355;49.198;-0.368;2023-07-20T03:46:03;101121.03;;;17.78;63.65
49461;BME280;35355;49.198;-0.368;2023-07-20T03:48:32;101119.38;;;17.77;63.95
49461;BME280;35355;49.198;-0.368;2023-07-20T03:50:58;101121.53;;;17.80;63.64
49461;BME280;35355;49.198;-0.368;2023-07-20T03:53:23;101121.53;;;17.80;63.49
49461;BME280;35355;49.198;-0.368;2023-07-20T03:55:50;101116.00;;;17.80;63.51
49461;BME280;35355;49.198;-0.368;2023-07-20T03:58:16;101115.72;;;17.81;63.35
49461;BME280;35355;49.198;-0.368;2023-07-20T04:00:46;101116.81;;;17.80;63.13
49461;BME280;35355;49.198;-0.368;2023-07-20T04:03:12;101113.56;;;17.78;63.46
49461;BME280;35355;49.198;-0.368;2023-07-20T04:05:38;101126.44;;;17.83;63.66
49461;BME280;35355;49.198;-0.368;2023-07-20T04:08:03;101122.56;;;17.84;63.53
49461;BME280;35355;49.198;-0.368;2023-07-20T04:10:29;101118.16;;;17.83;63.38
49461;BME280;35355;49.198;-0.368;2023-07-20T04:12:55;101118.47;;;17.81;63.49
49461;BME280;35355;49.198;-0.368;2023-07-20T04:15:20;101122.03;;;17.82;63.22
49461;BME280;35355;49.198;-0.368;2023-07-20T04:17:45;101127.06;;;17.80;63.32
49461;BME280;35355;49.198;-0.368;2023-07-20T04:20:11;101128.78;;;17.76;63.25
49461;BME280;35355;49.198;-0.368;2023-07-20T04:22:37;101130.72;;;17.75;63.18
49461;BME280;35355;49.198;-0.368;2023-07-20T04:25:03;101139.50;;;17.77;63.44
49461;BME280;35355;49.198;-0.368;2023-07-20T04:27:29;101134.28;;;17.76;63.29
49461;BME280;35355;49.198;-0.368;2023-07-20T04:29:54;101135.44;;;17.75;63.17
49461;BME280;35355;49.198;-0.368;2023-07-20T04:32:20;101131.03;;;17.74;63.15
49461;BME280;35355;49.198;-0.368;2023-07-20T04:34:45;101129.06;;;17.74;63.10
49461;BME280;35355;49.198;-0.368;2023-07-20T04:37:10;101127.97;;;17.75;63.17
49461;BME280;35355;49.198;-0.368;2023-07-20T04:39:36;101131.53;;;17.76;63.16
49461;BME280;35355;49.198;-0.368;2023-07-20T04:42:01;101136.25;;;17.75;63.11
49461;BME280;35355;49.198;-0.368;2023-07-20T04:44:26;101131.03;;;17.74;63.24
49461;BME280;35355;49.198;-0.368;2023-07-20T04:46:52;101131.53;;;17.76;63.01
49461;BME280;35355;49.198;-0.368;2023-07-20T04:49:17;101134.00;;;17.77;63.14
49461;BME280;35355;49.198;-0.368;2023-07-20T04:51:43;101124.91;;;17.77;62.84
49461;BME280;35355;49.198;-0.368;2023-07-20T04:54:08;101126.53;;;17.78;62.96
49461;BME280;35355;49.198;-0.368;2023-07-20T04:56:33;101126.25;;;17.79;63.20
49461;BME280;35355;49.198;-0.368;2023-07-20T04:58:59;101123.78;;;17.78;63.08
49461;BME280;35355;49.198;-0.368;2023-07-20T05:01:24;101115.81;;;17.76;62.97
49461;BME280;35355;49.198;-0.368;2023-07-20T05:03:51;101117.22;;;17.74;62.96
49461;BME280;35355;49.198;-0.368;2023-07-20T05:06:17;101118.88;;;17.75;62.98
49461;BME280;35355;49.198;-0.368;2023-07-20T05:08:43;101119.16;;;17.73;63.25
49461;BME280;35355;49.198;-0.368;2023-07-20T05:11:09;101113.34;;;17.75;63.09
49461;BME280;35355;49.198;-0.368;2023-07-20T05:13:35;101107.81;;;17.75;63.12
49461;BME280;35355;49.198;-0.368;2023-07-20T05:16:00;101104.22;;;17.74;62.96
49461;BME280;35355;49.198;-0.368;2023-07-20T05:18:26;101105.38;;;17.73;62.91
49461;BME280;35355;49.198;-0.368;2023-07-20T05:20:51;101103.41;;;17.74;63.35
49461;BME280;35355;49.198;-0.368;2023-07-20T05:23:18;101110.59;;;17.75;63.36
49461;BME280;35355;49.198;-0.368;2023-07-20T05:25:45;101112.50;;;17.74;63.41
49461;BME280;35355;49.198;-0.368;2023-07-20T05:28:10;101109.44;;;17.76;63.66
49461;BME280;35355;49.198;-0.368;2023-07-20T05:30:36;101109.44;;;17.76;63.70
49461;BME280;35355;49.198;-0.368;2023-07-20T05:33:01;101102.31;;;17.75;63.86
49461;BME280;35355;49.198;-0.368;2023-07-20T05:35:27;101100.56;;;17.79;63.91
49461;BME280;35355;49.198;-0.368;2023-07-20T05:37:52;101111.84;;;17.82;64.29
49461;BME280;35355;49.198;-0.368;2023-07-20T05:40:18;101110.94;;;17.87;64.48
49461;BME280;35355;49.198;-0.368;2023-07-20T05:42:48;101112.81;;;17.92;64.25
49461;BME280;35355;49.198;-0.368;2023-07-20T05:45:17;101110.78;;;17.97;64.49
49461;BME280;35355;49.198;-0.368;2023-07-20T05:47:43;101109.88;;;18.02;64.78
49461;BME280;35355;49.198;-0.368;2023-07-20T05:50:09;101117.78;;;18.09;64.91
49461;BME280;35355;49.198;-0.368;2023-07-20T05:52:34;101121.78;;;18.16;64.92
49461;BME280;35355;49.198;-0.368;2023-07-20T05:55:00;101117.50;;;18.24;64.88
49461;BME280;35355;49.198;-0.368;2023-07-20T05:57:25;101115.66;;;18.33;64.83
49461;BME280;35355;49.198;-0.368;2023-07-20T05:59:50;101116.00;;;18.46;64.83
49461;BME280;35355;49.198;-0.368;2023-07-20T06:02:16;101109.22;;;18.52;64.71
49461;BME280;35355;49.198;-0.368;2023-07-20T06:04:42;101116.59;;;18.56;64.40
49461;BME280;35355;49.198;-0.368;2023-07-20T06:07:08;101121.72;;;18.63;64.58
49461;BME280;35355;49.198;-0.368;2023-07-20T06:09:33;101113.94;;;18.65;64.63
49461;BME280;35355;49.198;-0.368;2023-07-20T06:11:59;101117.63;;;18.74;64.63
49461;BME280;35355;49.198;-0.368;2023-07-20T06:14:24;101111.28;;;18.88;64.67
49461;BME280;35355;49.198;-0.368;2023-07-20T06:16:50;101114.38;;;19.00;64.49
49461;BME280;35355;49.198;-0.368;2023-07-20T06:19:15;101112.81;;;19.08;64.47
49461;BME280;35355;49.198;-0.368;2023-07-20T06:21:41;101109.09;;;19.13;64.41
49461;BME280;35355;49.198;-0.368;2023-07-20T06:24:07;101112.69;;;19.13;64.30
49461;BME280;35355;49.198;-0.368;2023-07-20T06:26:33;101115.13;;;19.15;64.53
49461;BME280;35355;49.198;-0.368;2023-07-20T06:29:04;101105.09;;;19.19;64.67
49461;BME280;35355;49.198;-0.368;2023-07-20T06:31:31;101112.75;;;19.22;64.64
49461;BME280;35355;49.198;-0.368;2023-07-20T06:33:57;101102.22;;;19.24;64.21
49461;BME280;35355;49.198;-0.368;2023-07-20T06:36:22;101108.16;;;19.31;64.33
49461;BME280;35355;49.198;-0.368;2023-07-20T06:38:48;101108.97;;;19.32;64.13
49461;BME280;35355;49.198;-0.368;2023-07-20T06:41:13;101108.72;;;19.42;64.12
49461;BME280;35355;49.198;-0.368;2023-07-20T06:43:38;101100.59;;;19.45;64.01
49461;BME280;35355;49.198;-0.368;2023-07-20T06:46:04;101108.22;;;19.62;64.01
49461;BME280;35355;49.198;-0.368;2023-07-20T06:48:29;101109.81;;;19.77;63.73
49461;BME280;35355;49.198;-0.368;2023-07-20T06:50:55;101103.91;;;19.93;63.47
49461;BME280;35355;49.198;-0.368;2023-07-20T06:53:20;101108.53;;;20.06;63.19
49461;BME280;35355;49.198;-0.368;2023-07-20T06:55:46;101106.34;;;20.17;63.04
49461;BME280;35355;49.198;-0.368;2023-07-20T06:58:11;101118.47;;;20.30;62.96
49461;BME280;35355;49.198;-0.368;2023-07-20T07:00:36;101113.63;;;20.44;62.53
49461;BME280;35355;49.198;-0.368;2023-07-20T07:03:02;101106.66;;;20.56;62.42
49461;BME280;35355;49.198;-0.368;2023-07-20T07:05:28;101115.41;;;20.72;62.38
49461;BME280;35355;49.198;-0.368;2023-07-20T07:07:53;101109.72;;;20.85;61.98
49461;BME280;35355;49.198;-0.368;2023-07-20T07:10:19;101118.25;;;20.98;61.55
49461;BME280;35355;49.198;-0.368;2023-07-20T07:12:44;101119.06;;;21.07;61.51
49461;BME280;35355;49.198;-0.368;2023-07-20T07:15:10;101119.75;;;21.13;61.28
49461;BME280;35355;49.198;-0.368;2023-07-20T07:17:36;101119.25;;;21.19;61.33
49461;BME280;35355;49.198;-0.368;2023-07-20T07:20:01;101114.69;;;21.24;60.87
49461;BME280;35355;49.198;-0.368;2023-07-20T07:22:27;101117.47;;;21.24;60.92
49461;BME280;35355;49.198;-0.368;2023-07-20T07:24:52;101116.34;;;21.25;60.68
49461;BME280;35355;49.198;-0.368;2023-07-20T07:27:19;101104.56;;;21.28;61.18
49461;BME280;35355;49.198;-0.368;2023-07-20T07:29:44;101110.78;;;21.33;60.94
49461;BME280;35355;49.198;-0.368;2023-07-20T07:32:10;101104.56;;;21.36;60.90
49461;BME280;35355;49.198;-0.368;2023-07-20T07:34:36;101105.53;;;21.41;60.70
49461;BME280;35355;49.198;-0.368;2023-07-20T07:37:01;101108.50;;;21.44;60.73
49461;BME280;35355;49.198;-0.368;2023-07-20T07:39:27;101103.91;;;21.48;60.67
49461;BME280;35355;49.198;-0.368;2023-07-20T07:41:54;101110.47;;;21.52;60.57
49461;BME280;35355;49.198;-0.368;2023-07-20T07:44:20;101098.72;;;21.55;60.42
49461;BME280;35355;49.198;-0.368;2023-07-20T07:46:46;101100.84;;;21.59;60.76
49461;BME280;35355;49.198;-0.368;2023-07-20T07:49:12;101098.88;;;21.59;60.32
49461;BME280;35355;49.198;-0.368;2023-07-20T07:51:37;101094.44;;;21.58;60.00
49461;BME280;35355;49.198;-0.368;2023-07-20T07:54:03;101093.66;;;21.58;59.82
49461;BME280;35355;49.198;-0.368;2023-07-20T07:56:29;101096.75;;;21.56;60.16
49461;BME280;35355;49.198;-0.368;2023-07-20T07:58:54;101088.91;;;21.58;60.08
49461;BME280;35355;49.198;-0.368;2023-07-20T08:01:20;101087.91;;;21.63;59.35
49461;BME280;35355;49.198;-0.368;2023-07-20T08:03:46;101089.72;;;21.67;59.21
49461;BME280;35355;49.198;-0.368;2023-07-20T08:06:16;101083.31;;;21.76;59.91
49461;BME280;35355;49.198;-0.368;2023-07-20T08:08:42;101085.94;;;21.89;59.82
49461;BME280;35355;49.198;-0.368;2023-07-20T08:11:10;101082.81;;;22.00;59.53
49461;BME280;35355;49.198;-0.368;2023-07-20T08:13:36;101085.84;;;22.07;59.35
49461;BME280;35355;49.198;-0.368;2023-07-20T08:16:01;101085.69;;;22.12;58.90
49461;BME280;35355;49.198;-0.368;2023-07-20T08:18:30;101089.13;;;22.18;58.85
49461;BME280;35355;49.198;-0.368;2023-07-20T08:20:56;101084.88;;;22.20;58.49
49461;BME280;35355;49.198;-0.368;2023-07-20T08:23:21;101081.41;;;22.23;58.26
49461;BME280;35355;49.198;-0.368;2023-07-20T08:25:47;101085.97;;;22.28;58.02
49461;BME280;35355;49.198;-0.368;2023-07-20T08:28:14;101085.63;;;22.30;58.49
49461;BME280;35355;49.198;-0.368;2023-07-20T08:30:45;101088.75;;;22.37;58.03
49461;BME280;35355;49.198;-0.368;2023-07-20T08:33:13;101077.44;;;22.42;57.21
49461;BME280;35355;49.198;-0.368;2023-07-20T08:35:38;101080.03;;;22.47;57.45
49461;BME280;35355;49.198;-0.368;2023-07-20T08:38:04;101091.75;;;22.53;57.16
49461;BME280;35355;49.198;-0.368;2023-07-20T08:40:33;101081.75;;;22.60;56.92
49461;BME280;35355;49.198;-0.368;2023-07-20T08:42:59;101071.91;;;22.63;55.66
49461;BME280;35355;49.198;-0.368;2023-07-20T08:45:28;101077.63;;;22.67;55.94
49461;BME280;35355;49.198;-0.368;2023-07-20T08:47:56;101079.75;;;22.70;55.60
49461;BME280;35355;49.198;-0.368;2023-07-20T08:50:25;101079.06;;;22.73;56.03
49461;BME280;35355;49.198;-0.368;2023-07-20T08:52:52;101073.31;;;22.78;55.32
49461;BME280;35355;49.198;-0.368;2023-07-20T08:55:20;101076.84;;;22.87;55.25
49461;BME280;35355;49.198;-0.368;2023-07-20T08:57:49;101061.31;;;22.86;55.15
49461;BME280;35355;49.198;-0.368;2023-07-20T09:00:16;101076.75;;;23.05;54.32
49461;BME280;35355;49.198;-0.368;2023-07-20T09:02:45;101078.50;;;23.09;54.35
49461;BME280;35355;49.198;-0.368;2023-07-20T09:05:11;101080.97;;;23.11;54.01
49461;BME280;35355;49.198;-0.368;2023-07-20T09:07:40;101076.59;;;23.01;53.83
49461;BME280;35355;49.198;-0.368;2023-07-20T09:10:06;101074.16;;;23.00;53.92
49461;BME280;35355;49.198;-0.368;2023-07-20T09:12:35;101074.63;;;23.02;54.23
49461;BME280;35355;49.198;-0.368;2023-07-20T09:15:00;101074.44;;;23.07;54.78
49461;BME280;35355;49.198;-0.368;2023-07-20T09:17:26;101077.63;;;23.18;54.43
49461;BME280;35355;49.198;-0.368;2023-07-20T09:19:53;101072.34;;;23.25;53.57
49461;BME280;35355;49.198;-0.368;2023-07-20T09:22:19;101072.97;;;23.30;52.89
49461;BME280;35355;49.198;-0.368;2023-07-20T09:24:44;101065.16;;;23.24;52.41
49461;BME280;35355;49.198;-0.368;2023-07-20T09:27:11;101070.94;;;23.19;52.20
49461;BME280;35355;49.198;-0.368;2023-07-20T09:29:49;101068.28;;;23.22;53.14
49461;BME280;35355;49.198;-0.368;2023-07-20T09:32:18;101071.81;;;23.32;53.00
49461;BME280;35355;49.198;-0.368;2023-07-20T09:34:44;101060.00;;;23.35;52.51
49461;BME280;35355;49.198;-0.368;2023-07-20T09:37:10;101063.22;;;23.37;51.51
49461;BME280;35355;49.198;-0.368;2023-07-20T09:39:45;101068.06;;;23.27;52.18
49461;BME280;35355;49.198;-0.368;2023-07-20T09:42:15;101058.75;;;23.23;51.49
49461;BME280;35355;49.198;-0.368;2023-07-20T09:44:44;101062.72;;;23.22;51.49
49461;BME280;35355;49.198;-0.368;2023-07-20T09:47:10;101058.50;;;23.16;50.98
49461;BME280;35355;49.198;-0.368;2023-07-20T09:49:41;101065.69;;;23.17;51.05
49461;BME280;35355;49.198;-0.368;2023-07-20T09:52:08;101063.59;;;23.14;50.59
49461;BME280;35355;49.198;-0.368;2023-07-20T09:54:37;101058.19;;;23.09;50.87
49461;BME280;35355;49.198;-0.368;2023-07-20T09:57:03;101060.50;;;23.07;50.32
49461;BME280;35355;49.198;-0.368;2023-07-20T09:59:32;101065.09;;;23.03;50.12
49461;BME280;35355;49.198;-0.368;2023-07-20T10:01:58;101061.19;;;23.04;50.46
49461;BME280;35355;49.198;-0.368;2023-07-20T10:04:26;101054.13;;;23.06;50.27
49461;BME280;35355;49.198;-0.368;2023-07-20T10:06:54;101060.81;;;23.14;50.36
49461;BME280;35355;49.198;-0.368;2023-07-20T10:09:22;101055.72;;;23.16;50.01
49461;BME280;35355;49.198;-0.368;2023-07-20T10:11:53;101053.75;;;23.17;50.16
49461;BME280;35355;49.198;-0.368;2023-07-20T10:14:20;101050.06;;;23.25;49.53
49461;BME280;35355;49.198;-0.368;2023-07-20T10:16:58;101051.34;;;23.27;49.76
49461;BME280;35355;49.198;-0.368;2023-07-20T10:19:38;101047.88;;;23.30;49.83
49461;BME280;35355;49.198;-0.368;2023-07-20T10:22:14;101040.03;;;23.33;49.80
49461;BME280;35355;49.198;-0.368;2023-07-20T10:24:45;101042.84;;;23.45;49.15
49461;BME280;35355;49.198;-0.368;2023-07-20T10:27:11;101037.66;;;23.56;48.46
49461;BME280;35355;49.198;-0.368;2023-07-20T10:29:36;101043.63;;;23.67;48.62
49461;BME280;35355;49.198;-0.368;2023-07-20T10:32:03;101043.50;;;23.75;49.05
49461;BME280;35355;49.198;-0.368;2023-07-20T10:34:29;101047.03;;;23.85;49.61
49461;BME280;35355;49.198;-0.368;2023-07-20T10:36:55;101042.75;;;23.87;49.68
49461;BME280;35355;49.198;-0.368;2023-07-20T10:39:27;101043.69;;;23.91;49.56
49461;BME280;35355;49.198;-0.368;2023-07-20T10:42:11;101040.91;;;23.91;49.85
49461;BME280;35355;49.198;-0.368;2023-07-20T10:44:38;101042.09;;;23.90;48.86
49461;BME280;35355;49.198;-0.368;2023-07-20T10:47:09;101035.56;;;23.86;49.59
49461;BME280;35355;49.198;-0.368;2023-07-20T10:49:35;101045.53;;;23.87;49.33
49461;BME280;35355;49.198;-0.368;2023-07-20T10:52:04;101044.25;;;23.85;49.90
49461;BME280;35355;49.198;-0.368;2023-07-20T10:57:30;101038.53;;;23.69;50.33
49461;BME280;35355;49.198;-0.368;2023-07-20T11:00:12;101034.41;;;23.54;49.95
49461;BME280;35355;49.198;-0.368;2023-07-20T11:02:45;101034.34;;;23.41;50.08
49461;BME280;35355;49.198;-0.368;2023-07-20T11:05:39;101033.28;;;23.34;50.44
49461;BME280;35355;49.198;-0.368;2023-07-20T11:08:38;101025.50;;;23.27;50.64
49461;BME280;35355;49.198;-0.368;2023-07-20T11:11:23;101018.16;;;23.22;50.32
49461;BME280;35355;49.198;-0.368;2023-07-20T11:14:03;101014.44;;;23.18;49.96
49461;BME280;35355;49.198;-0.368;2023-07-20T11:16:36;101019.50;;;23.16;49.80
49461;BME280;35355;49.198;-0.368;2023-07-20T11:19:03;101015.13;;;23.15;49.21
49461;BME280;35355;49.198;-0.368;2023-07-20T11:21:35;101019.50;;;23.16;49.31
49461;BME280;35355;49.198;-0.368;2023-07-20T11:24:03;101016.19;;;23.23;49.01
49461;BME280;35355;49.198;-0.368;2023-07-20T11:26:29;101012.84;;;23.29;48.39
49461;BME280;35355;49.198;-0.368;2023-07-20T11:28:54;101015.19;;;23.40;47.63
49461;BME280;35355;49.198;-0.368;2023-07-20T11:31:20;101015.19;;;23.40;47.72
49461;BME280;35355;49.198;-0.368;2023-07-20T11:33:46;101007.78;;;23.44;47.88
49461;BME280;35355;49.198;-0.368;2023-07-20T11:36:12;101015.25;;;23.52;47.57
49461;BME280;35355;49.198;-0.368;2023-07-20T11:38:41;101004.22;;;23.56;47.36
49461;BME280;35355;49.198;-0.368;2023-07-20T11:41:08;101005.63;;;23.62;46.26
49461;BME280;35355;49.198;-0.368;2023-07-20T11:43:33;101014.81;;;23.62;45.95
49461;BME280;35355;49.198;-0.368;2023-07-20T11:45:59;101009.94;;;23.59;45.70
49461;BME280;35355;49.198;-0.368;2023-07-20T11:48:26;101011.88;;;23.59;45.43
49461;BME280;35355;49.198;-0.368;2023-07-20T11:50:51;101004.38;;;23.59;45.48
49461;BME280;35355;49.198;-0.368;2023-07-20T11:53:17;101011.53;;;23.60;45.24
49461;BME280;35355;49.198;-0.368;2023-07-20T11:55:42;101010.28;;;23.58;44.77
49461;BME280;35355;49.198;-0.368;2023-07-20T11:58:09;101008.16;;;23.55;44.81
49461;BME280;35355;49.198;-0.368;2023-07-20T12:00:38;101011.97;;;23.50;44.50
49461;BME280;35355;49.198;-0.368;2023-07-20T12:03:06;100999.78;;;23.42;44.70
49461;BME280;35355;49.198;-0.368;2023-07-20T12:05:37;101009.16;;;23.38;44.76
49461;BME280;35355;49.198;-0.368;2023-07-20T12:08:03;101007.53;;;23.37;44.87
49461;BME280;35355;49.198;-0.368;2023-07-20T12:10:29;101008.22;;;23.34;44.44
49461;BME280;35355;49.198;-0.368;2023-07-20T12:13:01;101005.44;;;23.34;45.30
49461;BME280;35355;49.198;-0.368;2023-07-20T12:15:29;101000.47;;;23.39;44.53
49461;BME280;35355;49.198;-0.368;2023-07-20T12:17:57;100998.63;;;23.43;44.24
49461;BME280;35355;49.198;-0.368;2023-07-20T12:22:51;100990.78;;;23.58;44.24
49461;BME280;35355;49.198;-0.368;2023-07-20T12:25:17;101002.97;;;23.65;43.85
49461;BME280;35355;49.198;-0.368;2023-07-20T12:27:45;100998.56;;;23.64;43.77
49461;BME280;35355;49.198;-0.368;2023-07-20T12:30:12;100987.75;;;23.63;43.38
49461;BME280;35355;49.198;-0.368;2023-07-20T12:32:39;100984.16;;;23.62;43.54
49461;BME280;35355;49.198;-0.368;2023-07-20T12:35:05;100983.34;;;23.62;44.05
49461;BME280;35355;49.198;-0.368;2023-07-20T12:37:31;100978.09;;;23.60;44.05
49461;BME280;35355;49.198;-0.368;2023-07-20T12:39:56;100977.31;;;23.60;43.72
49461;BME280;35355;49.198;-0.368;2023-07-20T12:42:22;100985.44;;;23.65;44.29
49461;BME280;35355;49.198;-0.368;2023-07-20T12:44:49;100985.56;;;23.69;43.90
49461;BME280;35355;49.198;-0.368;2023-07-20T12:47:16;100977.66;;;23.71;43.67
49461;BME280;35355;49.198;-0.368;2023-07-20T12:49:42;100978.50;;;23.71;43.97